createdAt,value
2019-04-04T00:01:06.661Z,100054.59
2019-04-04T00:03:38.536Z,100053.84
2019-04-04T00:06:10.336Z,100045.44
2019-04-04T00:08:42.461Z,100037.58
2019-04-04T00:11:14.236Z,100031.48
2019-04-04T00:13:46.580Z,100033.27
2019-04-04T00:16:18.355Z,100030.47
2019-04-04T00:18:51.752Z,100036.31
2019-04-04T00:21:23.528Z,100023.53
2019-04-04T00:23:55.324Z,100026.50
2019-04-04T00:26:27.146Z,100028.95
2019-04-04T00:29:01.346Z,100031.73
2019-04-04T00:31:32.869Z,100035.08
2019-04-04T00:34:04.952Z,100032.11
2019-04-04T00:36:36.830Z,100035.46
2019-04-04T00:39:10.021Z,100030.97
2019-04-04T00:41:42.965Z,100026.08
2019-04-04T00:44:15.670Z,100035.46
2019-04-04T00:46:47.433Z,100038.80
2019-04-04T00:49:20.624Z,100041.59
2019-04-04T00:51:52.394Z,100043.83
2019-04-04T00:54:24.444Z,100041.75
2019-04-04T00:56:56.240Z,100038.95
2019-04-04T00:59:28.375Z,100035.22
2019-04-04T01:02:00.140Z,100032.11
2019-04-04T01:04:31.975Z,100035.92
2019-04-04T01:07:04.991Z,100031.42
2019-04-04T01:09:37.861Z,100033.06
2019-04-04T01:12:09.648Z,100037.01
2019-04-04T01:14:41.691Z,100026.00
2019-04-04T01:17:13.445Z,100028.87
2019-04-04T01:19:48.826Z,100028.64
2019-04-04T01:22:18.882Z,100025.97
2019-04-04T01:24:50.888Z,100025.28
2019-04-04T01:27:22.646Z,100028.14
2019-04-04T01:29:54.847Z,100023.95
2019-04-04T01:32:26.593Z,100013.19
2019-04-04T01:34:58.643Z,100005.11
2019-04-04T01:37:30.378Z,100006.47
2019-04-04T01:40:03.010Z,100002.33
2019-04-04T01:42:37.813Z,99998.96
2019-04-04T01:45:12.862Z,99997.30
2019-04-04T01:47:43.486Z,99998.93
2019-04-04T01:50:15.561Z,99992.06
2019-04-04T01:52:47.371Z,99997.04
2019-04-04T01:55:19.155Z,99994.75
2019-04-04T01:57:51.391Z,99990.59
2019-04-04T02:00:23.433Z,99982.61
2019-04-04T02:02:55.210Z,99980.00
2019-04-04T02:05:27.604Z,99983.56
2019-04-04T02:08:00.947Z,99983.70
2019-04-04T02:10:34.960Z,99978.70
2019-04-04T02:13:09.498Z,99981.08
2019-04-04T02:15:40.520Z,99980.16
2019-04-04T02:18:12.277Z,99984.44
2019-04-04T02:20:44.108Z,99985.42
2019-04-04T02:23:17.129Z,99989.30
2019-04-04T02:25:48.912Z,99983.06
2019-04-04T02:28:20.660Z,99983.38
2019-04-04T02:30:53.269Z,99974.55
2019-04-04T02:33:25.073Z,99970.87
2019-04-04T02:35:56.808Z,99970.64
2019-04-04T02:38:28.713Z,99966.38
2019-04-04T02:41:00.753Z,99966.05
2019-04-04T02:43:32.524Z,99965.58
2019-04-04T02:46:04.878Z,99965.41
2019-04-04T02:48:36.654Z,99971.55
2019-04-04T02:51:08.647Z,99975.02
2019-04-04T02:53:40.481Z,99975.73
2019-04-04T02:56:12.527Z,99972.02
2019-04-04T02:58:46.486Z,99972.57
2019-04-04T03:01:18.008Z,99974.66
2019-04-04T03:03:49.757Z,99967.15
2019-04-04T03:06:24.262Z,99965.37
2019-04-04T03:08:55.017Z,99962.13
2019-04-04T03:11:26.983Z,99955.17
2019-04-04T03:14:03.402Z,99957.42
2019-04-04T03:16:32.843Z,99961.27
2019-04-04T03:19:04.682Z,99960.65
2019-04-04T03:21:36.679Z,99961.87
2019-04-04T03:24:08.455Z,99967.33
2019-04-04T03:26:40.496Z,99962.36
2019-04-04T03:29:12.242Z,99966.80
2019-04-04T03:31:44.629Z,99960.14
2019-04-04T03:34:16.427Z,99957.98
2019-04-04T03:36:48.461Z,99952.02
2019-04-04T03:39:20.598Z,99953.65
2019-04-04T03:41:52.620Z,99964.23
2019-04-04T03:44:24.423Z,99955.94
2019-04-04T03:46:56.830Z,99963.37
2019-04-04T03:49:28.632Z,99959.17
2019-04-04T03:52:00.644Z,99956.80
2019-04-04T03:54:32.401Z,99956.57
2019-04-04T03:57:04.574Z,99968.45
2019-04-04T03:59:36.341Z,99967.52
2019-04-04T04:02:08.706Z,99973.13
2019-04-04T04:04:40.447Z,99969.00
2019-04-04T04:07:15.162Z,99971.53
2019-04-04T04:09:45.920Z,99971.53
2019-04-04T04:12:17.698Z,99976.34
2019-04-04T04:14:53.849Z,99973.89
2019-04-04T04:17:22.980Z,99966.61
2019-04-04T04:19:54.749Z,99962.09
2019-04-04T04:22:26.571Z,99957.20
2019-04-04T04:25:02.163Z,99960.86
2019-04-04T04:27:32.061Z,99965.45
2019-04-04T04:30:07.249Z,99971.82
2019-04-04T04:32:38.058Z,99966.46
2019-04-04T04:35:10.280Z,99969.29
2019-04-04T04:37:41.997Z,99975.19
2019-04-04T04:40:14.961Z,99974.82
2019-04-04T04:42:47.728Z,99971.95
2019-04-04T04:45:20.694Z,99970.22
2019-04-04T04:47:55.967Z,99961.94
2019-04-04T04:50:26.415Z,99960.77
2019-04-04T04:52:58.418Z,99965.36
2019-04-04T04:55:30.176Z,99966.45
2019-04-04T04:58:02.051Z,99966.83
2019-04-04T05:00:33.800Z,99967.73
2019-04-04T05:03:06.173Z,99965.66
2019-04-04T05:05:37.974Z,99965.04
2019-04-04T05:08:10.607Z,99959.88
2019-04-04T05:10:45.665Z,99955.77
2019-04-04T05:13:16.999Z,99950.84
2019-04-04T05:15:48.758Z,99957.65
2019-04-04T05:18:20.843Z,99951.52
2019-04-04T05:20:52.598Z,99953.50
2019-04-04T05:23:24.687Z,99953.35
2019-04-04T05:25:56.401Z,99958.41
2019-04-04T05:28:28.251Z,99965.81
2019-04-04T05:31:00.064Z,99970.20
2019-04-04T05:33:32.429Z,99977.41
2019-04-04T05:36:05.290Z,99986.77
2019-04-04T05:38:37.910Z,99978.82
2019-04-04T05:41:09.674Z,99983.05
2019-04-04T05:43:41.467Z,99977.90
2019-04-04T05:46:13.230Z,99982.25
2019-04-04T05:48:46.372Z,99971.98
2019-04-04T05:51:18.192Z,99979.40
2019-04-04T05:53:50.488Z,99978.15
2019-04-04T05:56:24.283Z,99973.76
2019-04-04T05:58:55.776Z,99978.28
2019-04-04T06:01:27.546Z,99971.02
2019-04-04T06:03:59.377Z,99977.19
2019-04-04T06:06:33.180Z,99973.86
2019-04-04T06:09:06.472Z,99965.62
2019-04-04T06:11:38.283Z,99960.41
2019-04-04T06:14:10.098Z,99955.98
2019-04-04T06:16:41.854Z,99960.20
2019-04-04T06:19:14.804Z,99954.67
2019-04-04T06:21:47.920Z,99947.52
2019-04-04T06:24:20.605Z,99941.44
2019-04-04T06:26:52.479Z,99946.49
2019-04-04T06:29:24.533Z,99946.59
2019-04-04T06:31:59.888Z,99949.56
2019-04-04T06:34:30.203Z,99945.09
2019-04-04T06:37:02.117Z,99946.66
2019-04-04T06:39:34.121Z,99937.96
2019-04-04T06:42:07.268Z,99935.23
2019-04-04T06:44:39.285Z,99940.99
2019-04-04T06:47:11.229Z,99939.66
2019-04-04T06:49:45.708Z,99941.13
2019-04-04T06:52:18.468Z,99935.67
2019-04-04T06:54:51.109Z,99938.34
2019-04-04T06:57:22.957Z,99949.62
2019-04-04T06:59:55.214Z,99951.75
2019-04-04T07:02:27.152Z,99942.87
2019-04-04T07:04:59.573Z,99942.64
2019-04-04T07:07:31.357Z,99941.94
2019-04-04T07:10:03.303Z,99942.16
2019-04-04T07:12:37.688Z,99938.20
2019-04-04T07:15:12.513Z,99941.88
2019-04-04T07:17:44.198Z,99935.00
2019-04-04T07:20:17.076Z,99937.77
2019-04-04T07:22:49.505Z,99941.86
2019-04-04T07:25:21.605Z,99934.08
2019-04-04T07:27:53.385Z,99932.45
2019-04-04T07:30:26.084Z,99938.53
2019-04-04T07:32:59.058Z,99933.31
2019-04-04T07:35:31.050Z,99934.52
2019-04-04T07:38:03.038Z,99932.91
2019-04-04T07:40:37.144Z,99943.57
2019-04-04T07:43:08.801Z,99942.30
2019-04-04T07:45:40.920Z,99937.61
2019-04-04T07:48:12.712Z,99936.95
2019-04-04T07:50:44.961Z,99941.29
2019-04-04T07:53:16.790Z,99936.81
2019-04-04T07:55:48.902Z,99934.32
2019-04-04T07:58:20.746Z,99941.75
2019-04-04T08:00:52.816Z,99931.23
2019-04-04T08:03:24.562Z,99941.61
2019-04-04T08:05:56.690Z,99942.96
2019-04-04T08:08:28.528Z,99944.38
2019-04-04T08:11:00.673Z,99945.22
2019-04-04T08:13:33.534Z,99943.66
2019-04-04T08:16:06.010Z,99950.80
2019-04-04T08:18:37.863Z,99933.45
2019-04-04T08:21:09.911Z,99942.45
2019-04-04T08:23:41.677Z,99934.20
2019-04-04T08:26:13.502Z,99932.00
2019-04-04T08:28:45.322Z,99929.70
2019-04-04T08:31:17.297Z,99928.69
2019-04-04T08:33:49.137Z,99936.62
2019-04-04T08:36:21.343Z,99938.06
2019-04-04T08:38:53.287Z,99927.06
2019-04-04T08:41:25.113Z,99928.48
2019-04-04T08:43:56.994Z,99927.77
2019-04-04T08:46:29.193Z,99932.00
2019-04-04T08:49:00.924Z,99924.02
2019-04-04T08:51:33.325Z,99916.48
2019-04-04T08:54:05.421Z,99924.84
2019-04-04T08:56:37.555Z,99931.84
2019-04-04T08:59:09.329Z,99917.09
2019-04-04T09:01:41.186Z,99916.92
2019-04-04T09:04:12.975Z,99921.18
2019-04-04T09:06:45.116Z,99919.93
2019-04-04T09:09:16.942Z,99923.44
2019-04-04T09:11:48.788Z,99929.23
2019-04-04T09:14:20.601Z,99927.02
2019-04-04T09:16:52.605Z,99929.91
2019-04-04T09:19:24.399Z,99922.89
2019-04-04T09:21:56.239Z,99919.53
2019-04-04T09:24:28.268Z,99925.45
2019-04-04T09:27:00.123Z,99912.20
2019-04-04T09:29:31.954Z,99907.09
2019-04-04T09:32:04.133Z,99901.09
2019-04-04T09:34:37.182Z,99893.58
2019-04-04T09:37:09.516Z,99900.52
2019-04-04T09:39:41.337Z,99890.84
2019-04-04T09:42:13.474Z,99891.03
2019-04-04T09:44:45.379Z,99883.74
2019-04-04T09:47:17.562Z,99885.81
2019-04-04T09:49:49.361Z,99882.45
2019-04-04T09:52:21.897Z,99880.48
2019-04-04T09:54:53.713Z,99877.69
2019-04-04T09:57:25.517Z,99875.36
2019-04-04T09:59:57.364Z,99869.24
2019-04-04T10:02:29.213Z,99873.51
2019-04-04T10:05:01.022Z,99868.16
2019-04-04T10:07:33.170Z,99863.36
2019-04-04T10:10:06.518Z,99875.41
2019-04-04T10:12:38.608Z,99873.92
2019-04-04T10:15:10.978Z,99876.63
2019-04-04T10:17:43.169Z,99865.64
2019-04-04T10:20:15.076Z,99856.53
2019-04-04T10:22:46.975Z,99859.79
2019-04-04T10:25:18.784Z,99855.08
2019-04-04T10:27:50.605Z,99858.75
2019-04-04T10:30:22.668Z,99859.59
2019-04-04T10:32:54.571Z,99842.73
2019-04-04T10:35:26.389Z,99850.85
2019-04-04T10:37:58.478Z,99850.75
2019-04-04T10:40:30.237Z,99855.09
2019-04-04T10:43:03.621Z,99853.19
2019-04-04T10:45:35.371Z,99847.21
2019-04-04T10:48:07.440Z,99855.54
2019-04-04T10:50:39.228Z,99847.42
2019-04-04T10:53:11.325Z,99854.88
2019-04-04T10:55:43.113Z,99847.05
2019-04-04T10:58:15.195Z,99850.26
2019-04-04T11:00:46.963Z,99844.48
2019-04-04T11:03:18.805Z,99838.72
2019-04-04T11:05:50.695Z,99843.74
2019-04-04T11:08:22.840Z,99847.95
2019-04-04T11:10:54.660Z,99847.25
2019-04-04T11:13:33.522Z,99840.51
2019-04-04T11:16:00.115Z,99836.27
2019-04-04T11:18:31.944Z,99833.83
2019-04-04T11:21:03.726Z,99829.89
2019-04-04T11:23:37.040Z,99832.20
2019-04-04T11:26:08.813Z,99833.66
2019-04-04T11:28:40.612Z,99832.30
2019-04-04T11:31:12.426Z,99833.58
2019-04-04T11:33:44.260Z,99837.25
2019-04-04T11:36:16.100Z,99815.88
2019-04-04T11:38:48.351Z,99818.34
2019-04-04T11:41:20.302Z,99818.69
2019-04-04T11:43:52.194Z,99818.96
2019-04-04T11:46:23.941Z,99818.69
2019-04-04T11:48:55.762Z,99809.80
2019-04-04T11:51:27.571Z,99815.67
2019-04-04T11:53:59.826Z,99813.67
2019-04-04T11:56:31.714Z,99804.40
2019-04-04T11:59:04.873Z,99801.39
2019-04-04T12:01:39.226Z,99799.22
2019-04-04T12:04:11.268Z,99795.77
2019-04-04T12:06:43.883Z,99792.28
2019-04-04T12:09:16.214Z,99790.43
2019-04-04T12:11:48.025Z,99783.80
2019-04-04T12:14:19.971Z,99781.98
2019-04-04T12:16:51.755Z,99770.48
2019-04-04T12:19:23.878Z,99772.81
2019-04-04T12:21:55.627Z,99777.36
2019-04-04T12:24:27.750Z,99767.77
2019-04-04T12:26:59.543Z,99764.36
2019-04-04T12:29:31.381Z,99768.62
2019-04-04T12:32:03.190Z,99763.67
2019-04-04T12:34:35.355Z,99781.08
2019-04-04T12:37:07.152Z,99769.03
2019-04-04T12:39:39.390Z,99760.81
2019-04-04T12:42:11.233Z,99754.73
2019-04-04T12:44:43.136Z,99756.47
2019-04-04T12:47:14.949Z,99751.34
2019-04-04T12:49:46.932Z,99750.81
2019-04-04T12:52:18.991Z,99741.58
2019-04-04T12:54:51.323Z,99748.64
2019-04-04T12:57:23.149Z,99746.23
2019-04-04T12:59:55.291Z,99744.77
2019-04-04T13:02:27.096Z,99754.12
2019-04-04T13:04:59.218Z,99749.45
2019-04-04T13:07:32.972Z,99746.31
2019-04-04T13:10:11.676Z,99741.63
2019-04-04T13:12:41.967Z,99730.27
2019-04-04T13:15:16.138Z,99738.39
2019-04-04T13:17:47.994Z,99725.55
2019-04-04T13:20:20.819Z,99728.41
2019-04-04T13:22:52.663Z,99728.70
2019-04-04T13:25:24.856Z,99728.30
2019-04-04T13:27:56.640Z,99729.97
2019-04-04T13:30:28.794Z,99736.22
2019-04-04T13:33:00.540Z,99717.41
2019-04-04T13:35:32.610Z,99724.85
2019-04-04T13:38:04.406Z,99724.85
2019-04-04T13:40:45.502Z,99728.16
2019-04-04T13:43:09.945Z,99721.13
2019-04-04T13:45:41.781Z,99723.25
2019-04-04T13:48:13.615Z,99723.66
2019-04-04T13:50:45.469Z,99720.73
2019-04-04T13:53:17.289Z,99723.08
2019-04-04T13:55:49.560Z,99722.07
2019-04-04T13:58:22.177Z,99723.05
2019-04-04T14:00:55.112Z,99714.02
2019-04-04T14:03:27.011Z,99716.53
2019-04-04T14:06:01.693Z,99707.19
2019-04-04T14:08:32.865Z,99696.52
2019-04-04T14:11:05.328Z,99704.94
2019-04-04T14:13:37.166Z,99693.36
2019-04-04T14:16:09.146Z,99685.77
2019-04-04T14:18:44.488Z,99678.45
2019-04-04T14:21:15.132Z,99687.34
2019-04-04T14:23:46.908Z,99678.48
2019-04-04T14:26:19.361Z,99677.09
2019-04-04T14:28:51.159Z,99678.92
2019-04-04T14:31:23.093Z,99667.54
2019-04-04T14:33:54.927Z,99673.95
2019-04-04T14:36:26.869Z,99677.38
2019-04-04T14:38:58.791Z,99672.66
2019-04-04T14:41:31.012Z,99665.30
2019-04-04T14:44:03.223Z,99669.59
2019-04-04T14:46:37.156Z,99671.98
2019-04-04T14:49:09.076Z,99670.06
2019-04-04T14:51:41.257Z,99671.85
2019-04-04T14:54:13.412Z,99674.11
2019-04-04T14:56:45.723Z,99665.20
2019-04-04T14:59:17.799Z,99661.84
2019-04-04T15:01:50.537Z,99664.63
2019-04-04T15:04:22.351Z,99665.35
2019-04-04T15:06:54.237Z,99657.14
2019-04-04T15:09:26.151Z,99655.27
2019-04-04T15:11:58.548Z,99654.50
2019-04-04T15:14:30.769Z,99652.39
2019-04-04T15:17:03.242Z,99657.78
2019-04-04T15:19:35.052Z,99660.66
2019-04-04T15:22:06.998Z,99663.23
2019-04-04T15:24:38.839Z,99659.70
2019-04-04T15:27:10.891Z,99659.50
2019-04-04T15:29:42.722Z,99653.26
2019-04-04T15:32:15.305Z,99657.00
2019-04-04T15:34:47.155Z,99658.16
2019-04-04T15:37:19.422Z,99661.00
2019-04-04T15:39:51.383Z,99661.89
2019-04-04T15:42:23.413Z,99656.99
2019-04-04T15:44:55.342Z,99665.56
2019-04-04T15:47:27.534Z,99648.91
2019-04-04T15:49:59.342Z,99651.09
2019-04-04T15:52:31.262Z,99646.67
2019-04-04T15:55:03.078Z,99645.69
2019-04-04T15:57:35.211Z,99641.63
2019-04-04T16:00:10.137Z,99645.98
2019-04-04T16:02:42.164Z,99638.48
2019-04-04T16:05:14.115Z,99640.56
2019-04-04T16:07:46.173Z,99642.94
2019-04-04T16:10:18.873Z,99645.48
2019-04-04T16:12:51.798Z,99632.11
2019-04-04T16:15:24.186Z,99648.64
2019-04-04T16:17:56.660Z,99640.11
2019-04-04T16:20:28.629Z,99643.13
2019-04-04T16:23:00.852Z,99645.04
2019-04-04T16:25:32.729Z,99644.98
2019-04-04T16:28:05.308Z,99651.36
2019-04-04T16:30:37.170Z,99658.81
2019-04-04T16:33:09.433Z,99660.92
2019-04-04T16:35:41.436Z,99660.38
2019-04-04T16:38:13.669Z,99662.81
2019-04-04T16:40:46.748Z,99656.77
2019-04-04T16:43:19.138Z,99661.87
2019-04-04T16:45:50.973Z,99667.97
2019-04-04T16:48:23.278Z,99667.05
2019-04-04T16:50:55.227Z,99668.88
2019-04-04T16:53:29.809Z,99668.44
2019-04-04T16:56:00.689Z,99662.99
2019-04-04T16:58:33.005Z,99670.63
2019-04-04T17:01:04.862Z,99670.19
2019-04-04T17:03:37.421Z,99667.52
2019-04-04T17:06:09.328Z,99672.09
2019-04-04T17:08:41.539Z,99679.94
2019-04-04T17:11:13.349Z,99679.70
2019-04-04T17:13:45.548Z,99682.04
2019-04-04T17:16:17.438Z,99688.05
2019-04-04T17:18:49.706Z,99692.03
2019-04-04T17:21:21.618Z,99686.45
2019-04-04T17:23:53.945Z,99697.67
2019-04-04T17:26:26.166Z,99695.63
2019-04-04T17:28:58.576Z,99696.63
2019-04-04T17:31:30.837Z,99691.62
2019-04-04T17:34:03.238Z,99700.36
2019-04-04T17:36:35.689Z,99699.03
2019-04-04T17:39:09.953Z,99702.51
2019-04-04T17:41:42.466Z,99703.66
2019-04-04T17:44:15.182Z,99709.16
2019-04-04T17:46:47.179Z,99706.78
2019-04-04T17:49:19.290Z,99718.91
2019-04-04T17:51:51.377Z,99717.18
2019-04-04T17:54:23.605Z,99715.17
2019-04-04T17:56:56.065Z,99721.01
2019-04-04T17:59:30.356Z,99726.70
2019-04-04T18:02:02.900Z,99735.77
2019-04-04T18:04:47.546Z,99731.44
2019-04-04T18:07:09.012Z,99726.23
2019-04-04T18:09:41.492Z,99735.89
2019-04-04T18:12:13.691Z,99735.48
2019-04-04T18:14:46.042Z,99744.94
2019-04-04T18:17:18.049Z,99741.73
2019-04-04T18:19:50.170Z,99741.45
2019-04-04T18:22:22.662Z,99753.14
2019-04-04T18:24:55.073Z,99755.53
2019-04-04T18:27:28.087Z,99751.91
2019-04-04T18:30:00.690Z,99759.83
2019-04-04T18:32:32.641Z,99755.23
2019-04-04T18:35:06.100Z,99764.22
2019-04-04T18:37:39.404Z,99764.80
2019-04-04T18:40:12.276Z,99771.73
2019-04-04T18:42:53.181Z,99768.27
2019-04-04T18:45:18.771Z,99767.61
2019-04-04T18:47:50.923Z,99770.43
2019-04-04T18:50:23.181Z,99774.56
2019-04-04T18:52:55.265Z,99769.73
2019-04-04T18:55:27.419Z,99773.33
2019-04-04T18:57:59.514Z,99776.33
2019-04-04T19:00:31.986Z,99779.33
2019-04-04T19:03:04.159Z,99770.20
2019-04-04T19:05:36.338Z,99774.16
2019-04-04T19:08:08.195Z,99772.28
2019-04-04T19:10:40.259Z,99773.72
2019-04-04T19:13:12.292Z,99775.06
2019-04-04T19:15:45.035Z,99776.51
2019-04-04T19:18:16.985Z,99771.91
2019-04-04T19:20:48.990Z,99777.49
2019-04-04T19:23:20.891Z,99777.44
2019-04-04T19:25:52.960Z,99779.55
2019-04-04T19:28:25.075Z,99778.48
2019-04-04T19:30:58.719Z,99777.34
2019-04-04T19:33:30.943Z,99775.91
2019-04-04T19:36:03.439Z,99779.98
2019-04-04T19:38:35.508Z,99781.51
2019-04-04T19:41:08.120Z,99779.00
2019-04-04T19:43:40.054Z,99784.30
2019-04-04T19:46:12.369Z,99785.63
2019-04-04T19:48:44.301Z,99782.53
2019-04-04T19:51:16.317Z,99775.70
2019-04-04T19:53:48.268Z,99786.28
2019-04-04T19:56:20.422Z,99787.80
2019-04-04T19:58:52.358Z,99784.66
2019-04-04T20:01:25.806Z,99789.19
2019-04-04T20:03:58.010Z,99785.64
2019-04-04T20:06:30.270Z,99789.47
2019-04-04T20:09:02.199Z,99790.91
2019-04-04T20:11:36.306Z,99794.55
2019-04-04T20:14:08.247Z,99795.59
2019-04-04T20:16:40.579Z,99796.56
2019-04-04T20:19:12.418Z,99794.08
2019-04-04T20:21:44.682Z,99792.63
2019-04-04T20:24:16.531Z,99798.63
2019-04-04T20:26:48.563Z,99792.97
2019-04-04T20:29:20.437Z,99797.89
2019-04-04T20:31:52.833Z,99800.06
2019-04-04T20:34:24.733Z,99801.25
2019-04-04T20:36:58.108Z,99800.77
2019-04-04T20:39:29.977Z,99793.13
2019-04-04T20:42:02.024Z,99805.84
2019-04-04T20:44:33.944Z,99806.41
2019-04-04T20:47:06.248Z,99808.94
2019-04-04T20:49:38.171Z,99809.05
2019-04-04T20:52:11.287Z,99805.69
2019-04-04T20:54:43.195Z,99812.52
2019-04-04T20:57:15.352Z,99813.97
2019-04-04T20:59:47.223Z,99811.59
2019-04-04T21:02:19.215Z,99817.92
2019-04-04T21:04:54.226Z,99822.09
2019-04-04T21:07:24.829Z,99820.33
2019-04-04T21:09:56.711Z,99821.88
2019-04-04T21:12:28.989Z,99822.59
2019-04-04T21:15:01.028Z,99814.08
2019-04-04T21:17:33.616Z,99820.92
2019-04-04T21:20:06.342Z,99814.92
2019-04-04T21:22:38.319Z,99816.36
2019-04-04T21:25:10.527Z,99824.96
2019-04-04T21:27:43.135Z,99824.25
2019-04-04T21:30:15.292Z,99827.94
2019-04-04T21:32:47.732Z,99834.73
2019-04-04T21:35:19.633Z,99835.94
2019-04-04T21:37:51.772Z,99832.48
2019-04-04T21:40:23.580Z,99837.48
2019-04-04T21:42:55.699Z,99840.45
2019-04-04T21:45:27.514Z,99842.86
2019-04-04T21:47:59.752Z,99837.59
2019-04-04T21:50:31.661Z,99841.31
2019-04-04T21:53:03.581Z,99847.28
2019-04-04T21:55:35.735Z,99843.91
2019-04-04T21:58:07.873Z,99847.13
2019-04-04T22:00:47.017Z,99853.58
2019-04-04T22:03:21.024Z,99854.64
2019-04-04T22:05:52.867Z,99848.17
2019-04-04T22:08:25.051Z,99850.31
2019-04-04T22:10:57.012Z,99850.69
2019-04-04T22:13:29.088Z,99843.61
2019-04-04T22:16:00.986Z,99850.02
2019-04-04T22:18:33.400Z,99852.17
2019-04-04T22:21:05.335Z,99853.36
2019-04-04T22:23:37.362Z,99851.22
2019-04-04T22:26:10.835Z,99857.78
2019-04-04T22:28:43.037Z,99853.58
2019-04-04T22:31:14.801Z,99847.72
2019-04-04T22:33:47.158Z,99847.70
2019-04-04T22:36:19.068Z,99854.98
2019-04-04T22:38:51.070Z,99858.30
2019-04-04T22:41:22.882Z,99853.67
2019-04-04T22:44:03.400Z,99857.83
2019-04-04T22:46:28.456Z,99862.23
2019-04-04T22:49:01.058Z,99853.17
2019-04-04T22:51:32.910Z,99863.02
2019-04-04T22:54:04.748Z,99856.91
2019-04-04T22:56:36.584Z,99867.52
2019-04-04T22:59:08.332Z,99863.02
2019-04-04T23:01:40.129Z,99860.10
2019-04-04T23:04:12.370Z,99858.71
2019-04-04T23:06:44.135Z,99856.86
2019-04-04T23:09:15.892Z,99859.81
2019-04-04T23:11:47.645Z,99866.08
2019-04-04T23:14:19.568Z,99861.63
2019-04-04T23:16:51.351Z,99864.84
2019-04-04T23:19:23.142Z,99861.13
2019-04-04T23:21:54.955Z,99862.09
2019-04-04T23:24:27.237Z,99858.16
2019-04-04T23:26:59.057Z,99851.53
2019-04-04T23:29:31.063Z,99849.60
2019-04-04T23:32:04.135Z,99846.90
2019-04-04T23:34:36.183Z,99851.64
2019-04-04T23:37:08.180Z,99851.64
2019-04-04T23:39:39.980Z,99850.61
2019-04-04T23:42:11.776Z,99849.41
2019-04-04T23:44:43.576Z,99853.06
2019-04-04T23:47:16.488Z,99850.48
2019-04-04T23:49:48.306Z,99855.34
2019-04-04T23:52:20.091Z,99852.80
2019-04-04T23:54:52.178Z,99853.45
2019-04-04T23:57:23.939Z,99845.58
2019-04-04T23:59:55.764Z,99852.06
